sensor_id;sensor_type;location;lat;lon;timestamp;pressure;altitude;pressure_sealevel;temperature;humidity
48563;BME280;34981;49.104;11.396;2023-11-22T00:01:07;100952.81;;;2.58;100.00
48563;BME280;34981;49.104;11.396;2023-11-22T00:03:34;100943.97;;;2.57;100.00
48563;BME280;34981;49.104;11.396;2023-11-22T00:06:01;100930.78;;;2.56;100.00
48563;BME280;34981;49.104;11.396;2023-11-22T00:08:29;100928.97;;;2.56;100.00
48563;BME280;34981;49.104;11.396;2023-11-22T00:10:56;100928.13;;;2.56;100.00
48563;BME280;34981;49.104;11.396;2023-11-22T00:13:24;100913.16;;;2.55;100.00
48563;BME280;34981;49.104;11.396;2023-11-22T00:15:51;100923.97;;;2.52;100.00
48563;BME280;34981;49.104;11.396;2023-11-22T00:18:18;100917.81;;;2.51;100.00
48563;BME280;34981;49.104;11.396;2023-11-22T00:20:45;100914.19;;;2.52;100.00
48563;BME280;34981;49.104;11.396;2023-11-22T00:23:15;100905.69;;;2.47;100.00
48563;BME280;34981;49.104;11.396;2023-11-22T00:25:43;100913.53;;;2.49;100.00
48563;BME280;34981;49.104;11.396;2023-11-22T00:28:10;100903.97;;;2.46;100.00
48563;BME280;34981;49.104;11.396;2023-11-22T00:30:38;100898.66;;;2.46;100.00
48563;BME280;34981;49.104;11.396;2023-11-22T00:33:06;100897.81;;;2.46;100.00
48563;BME280;34981;49.104;11.396;2023-11-22T00:35:33;100888.88;;;2.47;100.00
48563;BME280;34981;49.104;11.396;2023-11-22T00:38:01;100896.00;;;2.46;100.00
48563;BME280;34981;49.104;11.396;2023-11-22T00:40:28;100887.34;;;2.43;100.00
48563;BME280;34981;49.104;11.396;2023-11-22T00:42:55;100879.38;;;2.43;100.00
48563;BME280;34981;49.104;11.396;2023-11-22T00:45:22;100875.88;;;2.42;100.00
48563;BME280;34981;49.104;11.396;2023-11-22T00:47:50;100865.47;;;2.39;100.00
48563;BME280;34981;49.104;11.396;2023-11-22T00:50:18;100865.38;;;2.41;100.00
48563;BME280;34981;49.104;11.396;2023-11-22T00:52:48;100855.69;;;2.40;100.00
48563;BME280;34981;49.104;11.396;2023-11-22T00:55:16;100847.16;;;2.34;100.00
48563;BME280;34981;49.104;11.396;2023-11-22T00:57:43;100849.94;;;2.33;100.00
48563;BME280;34981;49.104;11.396;2023-11-22T01:00:10;100857.03;;;2.32;100.00
48563;BME280;34981;49.104;11.396;2023-11-22T01:02:39;100847.53;;;2.28;100.00
48563;BME280;34981;49.104;11.396;2023-11-22T01:05:07;100841.50;;;2.26;100.00
48563;BME280;34981;49.104;11.396;2023-11-22T01:07:44;100825.66;;;2.25;100.00
48563;BME280;34981;49.104;11.396;2023-11-22T01:10:13;100814.38;;;2.21;100.00
48563;BME280;34981;49.104;11.396;2023-11-22T01:12:40;100809.25;;;2.18;100.00
48563;BME280;34981;49.104;11.396;2023-11-22T01:15:08;100797.13;;;2.14;100.00
48563;BME280;34981;49.104;11.396;2023-11-22T01:17:36;100791.91;;;2.13;100.00
48563;BME280;34981;49.104;11.396;2023-11-22T01:20:03;100792.03;;;2.11;100.00
48563;BME280;34981;49.104;11.396;2023-11-22T01:22:31;100804.31;;;2.12;100.00
48563;BME280;34981;49.104;11.396;2023-11-22T01:24:58;100806.03;;;2.13;100.00
48563;BME280;34981;49.104;11.396;2023-11-22T01:27:26;100796.56;;;2.09;100.00
48563;BME280;34981;49.104;11.396;2023-11-22T01:29:54;100792.22;;;2.08;100.00
48563;BME280;34981;49.104;11.396;2023-11-22T01:32:21;100781.78;;;2.05;100.00
48563;BME280;34981;49.104;11.396;2023-11-22T01:34:48;100785.41;;;2.04;100.00
48563;BME280;34981;49.104;11.396;2023-11-22T01:37:15;100752.78;;;2.02;100.00
48563;BME280;34981;49.104;11.396;2023-11-22T01:39:43;100743.97;;;2.02;100.00
48563;BME280;34981;49.104;11.396;2023-11-22T01:42:10;100756.28;;;2.03;100.00
48563;BME280;34981;49.104;11.396;2023-11-22T01:44:37;100749.47;;;1.99;100.00
48563;BME280;34981;49.104;11.396;2023-11-22T01:47:04;100753.91;;;1.98;100.00
48563;BME280;34981;49.104;11.396;2023-11-22T01:49:32;100737.34;;;1.94;100.00
48563;BME280;34981;49.104;11.396;2023-11-22T01:51:59;100730.72;;;1.87;100.00
48563;BME280;34981;49.104;11.396;2023-11-22T01:54:28;100722.78;;;1.87;100.00
48563;BME280;34981;49.104;11.396;2023-11-22T01:56:55;100716.78;;;1.84;100.00
48563;BME280;34981;49.104;11.396;2023-11-22T01:59:23;100701.00;;;1.82;100.00
48563;BME280;34981;49.104;11.396;2023-11-22T02:01:50;100697.56;;;1.80;100.00
48563;BME280;34981;49.104;11.396;2023-11-22T02:04:17;100696.91;;;1.77;100.00
48563;BME280;34981;49.104;11.396;2023-11-22T02:06:44;100694.38;;;1.75;100.00
48563;BME280;34981;49.104;11.396;2023-11-22T02:09:12;100677.78;;;1.72;100.00
48563;BME280;34981;49.104;11.396;2023-11-22T02:11:42;100677.78;;;1.72;100.00
48563;BME280;34981;49.104;11.396;2023-11-22T02:14:12;100674.38;;;1.70;100.00
48563;BME280;34981;49.104;11.396;2023-11-22T02:16:40;100656.00;;;1.67;100.00
48563;BME280;34981;49.104;11.396;2023-11-22T02:19:09;100645.50;;;1.65;100.00
48563;BME280;34981;49.104;11.396;2023-11-22T02:21:40;100631.56;;;1.62;100.00
48563;BME280;34981;49.104;11.396;2023-11-22T02:24:07;100633.38;;;1.61;100.00
48563;BME280;34981;49.104;11.396;2023-11-22T02:26:35;100623.72;;;1.60;100.00
48563;BME280;34981;49.104;11.396;2023-11-22T02:29:03;100616.63;;;1.61;100.00
48563;BME280;34981;49.104;11.396;2023-11-22T02:31:31;100613.00;;;1.62;100.00
48563;BME280;34981;49.104;11.396;2023-11-22T02:33:58;100605.16;;;1.60;100.00
48563;BME280;34981;49.104;11.396;2023-11-22T02:36:25;100599.00;;;1.60;100.00
48563;BME280;34981;49.104;11.396;2023-11-22T02:38:53;100581.38;;;1.59;100.00
48563;BME280;34981;49.104;11.396;2023-11-22T02:41:21;100577.13;;;1.56;100.00
48563;BME280;34981;49.104;11.396;2023-11-22T02:43:48;100569.38;;;1.53;100.00
48563;BME280;34981;49.104;11.396;2023-11-22T02:46:16;100552.63;;;1.52;100.00
48563;BME280;34981;49.104;11.396;2023-11-22T02:48:43;100535.41;;;1.45;100.00
48563;BME280;34981;49.104;11.396;2023-11-22T02:51:12;100534.66;;;1.43;100.00
48563;BME280;34981;49.104;11.396;2023-11-22T02:53:40;100516.25;;;1.40;100.00
48563;BME280;34981;49.104;11.396;2023-11-22T02:56:11;100493.56;;;1.36;100.00
48563;BME280;34981;49.104;11.396;2023-11-22T02:58:38;100483.91;;;1.35;100.00
48563;BME280;34981;49.104;11.396;2023-11-22T03:01:06;100473.50;;;1.32;100.00
48563;BME280;34981;49.104;11.396;2023-11-22T03:03:34;100459.69;;;1.27;100.00
48563;BME280;34981;49.104;11.396;2023-11-22T03:06:02;100437.00;;;1.23;100.00
48563;BME280;34981;49.104;11.396;2023-11-22T03:08:29;100430.00;;;1.22;100.00
48563;BME280;34981;49.104;11.396;2023-11-22T03:10:56;100431.91;;;1.20;100.00
48563;BME280;34981;49.104;11.396;2023-11-22T03:13:26;100422.16;;;1.21;100.00
48563;BME280;34981;49.104;11.396;2023-11-22T03:15:54;100405.03;;;1.12;100.00
48563;BME280;34981;49.104;11.396;2023-11-22T03:18:22;100385.09;;;1.06;100.00
48563;BME280;34981;49.104;11.396;2023-11-22T03:20:49;100356.47;;;0.99;100.00
48563;BME280;34981;49.104;11.396;2023-11-22T03:23:21;100329.44;;;0.94;100.00
48563;BME280;34981;49.104;11.396;2023-11-22T03:25:48;100307.78;;;0.87;100.00
48563;BME280;34981;49.104;11.396;2023-11-22T03:28:15;100279.78;;;0.83;100.00
48563;BME280;34981;49.104;11.396;2023-11-22T03:30:43;100274.59;;;0.82;100.00
48563;BME280;34981;49.104;11.396;2023-11-22T03:33:10;100265.94;;;0.80;100.00
48563;BME280;34981;49.104;11.396;2023-11-22T03:35:37;100259.66;;;0.81;100.00
48563;BME280;34981;49.104;11.396;2023-11-22T03:38:05;100251.81;;;0.79;100.00
48563;BME280;34981;49.104;11.396;2023-11-22T03:40:33;100250.13;;;0.78;100.00
48563;BME280;34981;49.104;11.396;2023-11-22T03:43:03;100229.88;;;0.77;100.00
48563;BME280;34981;49.104;11.396;2023-11-22T03:45:30;100226.38;;;0.76;100.00
48563;BME280;34981;49.104;11.396;2023-11-22T03:47:58;100201.78;;;0.74;100.00
48563;BME280;34981;49.104;11.396;2023-11-22T03:50:26;100194.78;;;0.73;100.00
48563;BME280;34981;49.104;11.396;2023-11-22T03:52:53;100189.50;;;0.73;100.00
48563;BME280;34981;49.104;11.396;2023-11-22T03:55:20;100174.69;;;0.71;100.00
48563;BME280;34981;49.104;11.396;2023-11-22T03:57:47;100160.06;;;0.65;100.00
48563;BME280;34981;49.104;11.396;2023-11-22T04:00:15;100156.66;;;0.63;100.00
48563;BME280;34981;49.104;11.396;2023-11-22T04:02:42;100149.88;;;0.59;100.00
48563;BME280;34981;49.104;11.396;2023-11-22T04:05:10;100132.31;;;0.58;100.00
48563;BME280;34981;49.104;11.396;2023-11-22T04:07:39;100116.63;;;0.55;100.00
48563;BME280;34981;49.104;11.396;2023-11-22T04:10:06;100097.44;;;0.52;100.00
48563;BME280;34981;49.104;11.396;2023-11-22T04:12:33;100082.53;;;0.51;100.00
48563;BME280;34981;49.104;11.396;2023-11-22T04:15:03;100075.41;;;0.51;100.00
48563;BME280;34981;49.104;11.396;2023-11-22T04:17:31;100062.41;;;0.48;100.00
48563;BME280;34981;49.104;11.396;2023-11-22T04:20:00;100061.66;;;0.46;100.00
48563;BME280;34981;49.104;11.396;2023-11-22T04:22:27;100056.44;;;0.45;100.00
48563;BME280;34981;49.104;11.396;2023-11-22T04:24:54;100050.53;;;0.41;100.00
48563;BME280;34981;49.104;11.396;2023-11-22T04:27:22;100039.31;;;0.37;100.00
48563;BME280;34981;49.104;11.396;2023-11-22T04:29:49;100025.63;;;0.31;100.00
48563;BME280;34981;49.104;11.396;2023-11-22T04:32:17;100024.91;;;0.29;100.00
48563;BME280;34981;49.104;11.396;2023-11-22T04:34:44;100017.09;;;0.27;100.00
48563;BME280;34981;49.104;11.396;2023-11-22T04:37:11;100001.41;;;0.24;100.00
48563;BME280;34981;49.104;11.396;2023-11-22T04:39:39;99989.13;;;0.23;100.00
48563;BME280;34981;49.104;11.396;2023-11-22T04:42:06;99990.72;;;0.26;100.00
48563;BME280;34981;49.104;11.396;2023-11-22T04:44:33;99969.66;;;0.24;100.00
48563;BME280;34981;49.104;11.396;2023-11-22T04:47:00;99965.31;;;0.23;100.00
48563;BME280;34981;49.104;11.396;2023-11-22T04:49:27;99959.16;;;0.23;100.00
48563;BME280;34981;49.104;11.396;2023-11-22T04:51:54;99951.47;;;0.20;100.00
48563;BME280;34981;49.104;11.396;2023-11-22T04:54:22;99968.09;;;0.22;100.00
48563;BME280;34981;49.104;11.396;2023-11-22T04:56:49;99955.91;;;0.19;100.00
48563;BME280;34981;49.104;11.396;2023-11-22T04:59:17;99950.59;;;0.19;100.00
48563;BME280;34981;49.104;11.396;2023-11-22T05:01:45;99952.59;;;0.16;100.00
48563;BME280;34981;49.104;11.396;2023-11-22T05:04:12;99952.41;;;0.19;100.00
48563;BME280;34981;49.104;11.396;2023-11-22T05:06:39;99940.22;;;0.16;100.00
48563;BME280;34981;49.104;11.396;2023-11-22T05:09:06;99925.44;;;0.14;100.00
48563;BME280;34981;49.104;11.396;2023-11-22T05:11:33;99920.13;;;0.14;100.00
48563;BME280;34981;49.104;11.396;2023-11-22T05:14:01;99891.97;;;0.13;100.00
48563;BME280;34981;49.104;11.396;2023-11-22T05:16:28;99901.63;;;0.14;100.00
48563;BME280;34981;49.104;11.396;2023-11-22T05:18:55;99881.41;;;0.13;100.00
48563;BME280;34981;49.104;11.396;2023-11-22T05:21:22;99884.75;;;0.15;100.00
48563;BME280;34981;49.104;11.396;2023-11-22T05:23:49;99875.03;;;0.15;100.00
48563;BME280;34981;49.104;11.396;2023-11-22T05:26:16;99867.22;;;0.14;100.00
48563;BME280;34981;49.104;11.396;2023-11-22T05:28:44;99865.53;;;0.13;100.00
48563;BME280;34981;49.104;11.396;2023-11-22T05:31:11;99853.16;;;0.13;100.00
48563;BME280;34981;49.104;11.396;2023-11-22T05:33:39;99836.63;;;0.10;100.00
48563;BME280;34981;49.104;11.396;2023-11-22T05:36:07;99840.22;;;0.09;100.00
48563;BME280;34981;49.104;11.396;2023-11-22T05:38:34;99835.88;;;0.08;100.00
48563;BME280;34981;49.104;11.396;2023-11-22T05:41:01;99826.16;;;0.08;100.00
48563;BME280;34981;49.104;11.396;2023-11-22T05:43:28;99823.63;;;0.07;100.00
48563;BME280;34981;49.104;11.396;2023-11-22T05:45:56;99806.06;;;0.06;100.00
48563;BME280;34981;49.104;11.396;2023-11-22T05:48:23;99798.97;;;0.06;100.00
48563;BME280;34981;49.104;11.396;2023-11-22T05:50:50;99799.69;;;0.08;100.00
48563;BME280;34981;49.104;11.396;2023-11-22T05:53:17;99808.47;;;0.09;100.00
48563;BME280;34981;49.104;11.396;2023-11-22T05:55:46;99815.69;;;0.07;100.00
48563;BME280;34981;49.104;11.396;2023-11-22T05:58:17;99819.19;;;0.07;100.00
48563;BME280;34981;49.104;11.396;2023-11-22T06:00:44;99819.91;;;0.09;100.00
48563;BME280;34981;49.104;11.396;2023-11-22T06:03:12;99813.06;;;0.07;100.00
48563;BME280;34981;49.104;11.396;2023-11-22T06:05:40;99809.44;;;0.08;100.00
48563;BME280;34981;49.104;11.396;2023-11-22T06:08:07;99805.22;;;0.05;100.00
48563;BME280;34981;49.104;11.396;2023-11-22T06:10:36;99807.97;;;0.04;100.00
48563;BME280;34981;49.104;11.396;2023-11-22T06:13:08;99791.25;;;0.03;100.00
48563;BME280;34981;49.104;11.396;2023-11-22T06:15:37;99787.75;;;0.03;100.00
48563;BME280;34981;49.104;11.396;2023-11-22T06:18:04;99783.41;;;0.02;100.00
48563;BME280;34981;49.104;11.396;2023-11-22T06:20:31;99794.94;;;0.00;100.00
48563;BME280;34981;49.104;11.396;2023-11-22T06:22:58;99781.97;;;-0.03;100.00
48563;BME280;34981;49.104;11.396;2023-11-22T06:25:26;99770.44;;;-0.02;100.00
48563;BME280;34981;49.104;11.396;2023-11-22T06:27:54;99773.94;;;-0.01;100.00
48563;BME280;34981;49.104;11.396;2023-11-22T06:30:21;99760.81;;;-0.03;100.00
48563;BME280;34981;49.104;11.396;2023-11-22T06:32:49;99763.44;;;-0.03;100.00
48563;BME280;34981;49.104;11.396;2023-11-22T06:35:16;99776.69;;;-0.03;100.00
48563;BME280;34981;49.104;11.396;2023-11-22T06:37:44;99765.34;;;-0.05;100.00
48563;BME280;34981;49.104;11.396;2023-11-22T06:40:12;99769.03;;;-0.07;100.00
48563;BME280;34981;49.104;11.396;2023-11-22T06:42:40;99767.25;;;-0.07;100.00
48563;BME280;34981;49.104;11.396;2023-11-22T06:45:07;99776.03;;;-0.06;100.00
48563;BME280;34981;49.104;11.396;2023-11-22T06:47:37;99776.88;;;-0.06;100.00
48563;BME280;34981;49.104;11.396;2023-11-22T06:50:04;99771.81;;;-0.09;100.00
48563;BME280;34981;49.104;11.396;2023-11-22T06:52:39;99772.69;;;-0.08;100.00
48563;BME280;34981;49.104;11.396;2023-11-22T06:55:06;99775.19;;;-0.07;100.00
48563;BME280;34981;49.104;11.396;2023-11-22T06:57:36;99765.78;;;-0.11;100.00
48563;BME280;34981;49.104;11.396;2023-11-22T07:00:05;99770.13;;;-0.10;100.00
48563;BME280;34981;49.104;11.396;2023-11-22T07:02:32;99761.44;;;-0.12;100.00
48563;BME280;34981;49.104;11.396;2023-11-22T07:05:00;99764.00;;;-0.10;100.00
48563;BME280;34981;49.104;11.396;2023-11-22T07:07:27;99765.69;;;-0.09;100.00
48563;BME280;34981;49.104;11.396;2023-11-22T07:09:55;99761.25;;;-0.09;100.00
48563;BME280;34981;49.104;11.396;2023-11-22T07:12:27;99756.16;;;-0.12;100.00
48563;BME280;34981;49.104;11.396;2023-11-22T07:14:54;99752.56;;;-0.11;100.00
48563;BME280;34981;49.104;11.396;2023-11-22T07:17:21;99759.56;;;-0.10;100.00
48563;BME280;34981;49.104;11.396;2023-11-22T07:19:49;99755.81;;;-0.07;100.00
48563;BME280;34981;49.104;11.396;2023-11-22T07:22:18;99750.53;;;-0.07;100.00
48563;BME280;34981;49.104;11.396;2023-11-22T07:24:46;99756.81;;;-0.08;100.00
48563;BME280;34981;49.104;11.396;2023-11-22T07:27:21;99742.94;;;-0.12;100.00
48563;BME280;34981;49.104;11.396;2023-11-22T07:29:49;99743.88;;;-0.13;100.00
48563;BME280;34981;49.104;11.396;2023-11-22T07:32:19;99732.47;;;-0.13;100.00
48563;BME280;34981;49.104;11.396;2023-11-22T07:34:47;99740.19;;;-0.10;100.00
48563;BME280;34981;49.104;11.396;2023-11-22T07:37:15;99743.44;;;-0.07;100.00
48563;BME280;34981;49.104;11.396;2023-11-22T07:39:43;99744.28;;;-0.06;100.00
48563;BME280;34981;49.104;11.396;2023-11-22T07:42:10;99739.97;;;-0.07;100.00
48563;BME280;34981;49.104;11.396;2023-11-22T07:44:38;99726.72;;;-0.07;100.00
48563;BME280;34981;49.104;11.396;2023-11-22T07:47:06;99736.25;;;-0.05;100.00
48563;BME280;34981;49.104;11.396;2023-11-22T07:49:39;99724.81;;;-0.05;100.00
48563;BME280;34981;49.104;11.396;2023-11-22T07:52:06;99727.56;;;-0.07;100.00
48563;BME280;34981;49.104;11.396;2023-11-22T07:54:34;99722.28;;;-0.07;100.00
48563;BME280;34981;49.104;11.396;2023-11-22T07:57:02;99711.09;;;-0.10;100.00
48563;BME280;34981;49.104;11.396;2023-11-22T07:59:29;99703.06;;;-0.09;100.00
48563;BME280;34981;49.104;11.396;2023-11-22T08:01:57;99702.94;;;-0.07;100.00
48563;BME280;34981;49.104;11.396;2023-11-22T08:04:24;99701.03;;;-0.05;100.00
48563;BME280;34981;49.104;11.396;2023-11-22T08:06:52;99694.28;;;-0.09;100.00
48563;BME280;34981;49.104;11.396;2023-11-22T08:09:23;99695.84;;;-0.07;100.00
48563;BME280;34981;49.104;11.396;2023-11-22T08:11:50;99685.06;;;-0.04;100.00
48563;BME280;34981;49.104;11.396;2023-11-22T08:14:19;99685.06;;;-0.04;100.00
48563;BME280;34981;49.104;11.396;2023-11-22T08:16:49;99684.94;;;-0.02;100.00
48563;BME280;34981;49.104;11.396;2023-11-22T08:19:16;99693.38;;;0.03;100.00
48563;BME280;34981;49.104;11.396;2023-11-22T08:21:43;99689.69;;;0.06;100.00
48563;BME280;34981;49.104;11.396;2023-11-22T08:24:10;99686.41;;;0.02;100.00
48563;BME280;34981;49.104;11.396;2023-11-22T08:26:40;99681.00;;;0.04;100.00
48563;BME280;34981;49.104;11.396;2023-11-22T08:29:07;99658.50;;;-0.02;100.00
48563;BME280;34981;49.104;11.396;2023-11-22T08:31:34;99657.56;;;-0.01;100.00
48563;BME280;34981;49.104;11.396;2023-11-22T08:34:03;99650.56;;;-0.02;100.00
48563;BME280;34981;49.104;11.396;2023-11-22T08:36:34;99646.00;;;0.00;100.00
48563;BME280;34981;49.104;11.396;2023-11-22T08:39:04;99639.16;;;-0.03;100.00
48563;BME280;34981;49.104;11.396;2023-11-22T08:41:32;99630.25;;;-0.02;100.00
48563;BME280;34981;49.104;11.396;2023-11-22T08:43:59;99620.63;;;-0.03;100.00
48563;BME280;34981;49.104;11.396;2023-11-22T08:46:27;99609.94;;;-0.01;100.00
48563;BME280;34981;49.104;11.396;2023-11-22T08:48:54;99608.84;;;0.02;100.00
48563;BME280;34981;49.104;11.396;2023-11-22T08:51:23;99599.75;;;0.06;100.00
48563;BME280;34981;49.104;11.396;2023-11-22T08:53:50;99591.81;;;0.06;100.00
48563;BME280;34981;49.104;11.396;2023-11-22T08:56:18;99590.13;;;0.05;100.00
48563;BME280;34981;49.104;11.396;2023-11-22T08:58:47;99590.00;;;0.06;100.00
48563;BME280;34981;49.104;11.396;2023-11-22T09:01:14;99584.59;;;0.08;100.00
48563;BME280;34981;49.104;11.396;2023-11-22T09:03:42;99575.84;;;0.07;100.00
48563;BME280;34981;49.104;11.396;2023-11-22T09:06:10;99567.91;;;0.07;100.00
48563;BME280;34981;49.104;11.396;2023-11-22T09:08:38;99558.59;;;0.02;100.00
48563;BME280;34981;49.104;11.396;2023-11-22T09:11:05;99546.84;;;0.06;100.00
48563;BME280;34981;49.104;11.396;2023-11-22T09:13:34;99532.88;;;0.04;100.00
48563;BME280;34981;49.104;11.396;2023-11-22T09:16:02;99523.38;;;0.01;100.00
48563;BME280;34981;49.104;11.396;2023-11-22T09:18:32;99524.00;;;0.05;100.00
48563;BME280;34981;49.104;11.396;2023-11-22T09:21:00;99510.03;;;0.03;100.00
48563;BME280;34981;49.104;11.396;2023-11-22T09:23:27;99510.50;;;0.08;100.00
48563;BME280;34981;49.104;11.396;2023-11-22T09:25:54;99500.66;;;0.10;100.00
48563;BME280;34981;49.104;11.396;2023-11-22T09:28:21;99488.91;;;0.14;100.00
48563;BME280;34981;49.104;11.396;2023-11-22T09:30:49;99481.69;;;0.16;100.00
48563;BME280;34981;49.104;11.396;2023-11-22T09:33:16;99470.13;;;0.17;100.00
48563;BME280;34981;49.104;11.396;2023-11-22T09:35:45;99449.94;;;0.16;100.00
48563;BME280;34981;49.104;11.396;2023-11-22T09:38:14;99446.84;;;0.22;100.00
48563;BME280;34981;49.104;11.396;2023-11-22T09:40:44;99438.28;;;0.18;100.00
48563;BME280;34981;49.104;11.396;2023-11-22T09:43:12;99433.84;;;0.19;100.00
48563;BME280;34981;49.104;11.396;2023-11-22T09:45:44;99434.56;;;0.21;100.00
48563;BME280;34981;49.104;11.396;2023-11-22T09:48:14;99423.97;;;0.21;100.00
48563;BME280;34981;49.104;11.396;2023-11-22T09:53:22;99404.50;;;0.22;100.00
48563;BME280;34981;49.104;11.396;2023-11-22T09:55:52;99396.69;;;0.20;100.00
48563;BME280;34981;49.104;11.396;2023-11-22T09:58:20;99392.25;;;0.21;100.00
48563;BME280;34981;49.104;11.396;2023-11-22T10:00:47;99388.63;;;0.22;100.00
48563;BME280;34981;49.104;11.396;2023-11-22T10:03:15;99382.00;;;0.27;100.00
48563;BME280;34981;49.104;11.396;2023-11-22T10:05:44;99370.22;;;0.31;100.00
48563;BME280;34981;49.104;11.396;2023-11-22T10:08:11;99369.59;;;0.39;100.00
48563;BME280;34981;49.104;11.396;2023-11-22T10:10:38;99381.16;;;0.49;100.00
48563;BME280;34981;49.104;11.396;2023-11-22T10:13:07;99361.16;;;0.45;100.00
48563;BME280;34981;49.104;11.396;2023-11-22T10:15:34;99363.22;;;0.42;100.00
48563;BME280;34981;49.104;11.396;2023-11-22T10:18:01;99360.22;;;0.46;100.00
48563;BME280;34981;49.104;11.396;2023-11-22T10:20:36;99340.00;;;0.45;100.00
48563;BME280;34981;49.104;11.396;2023-11-22T10:23:03;99338.19;;;0.46;100.00
48563;BME280;34981;49.104;11.396;2023-11-22T10:25:30;99331.22;;;0.45;100.00
48563;BME280;34981;49.104;11.396;2023-11-22T10:27:59;99322.19;;;0.47;100.00
48563;BME280;34981;49.104;11.396;2023-11-22T10:30:27;99308.38;;;0.44;100.00
48563;BME280;34981;49.104;11.396;2023-11-22T10:32:55;99304.50;;;0.48;100.00
48563;BME280;34981;49.104;11.396;2023-11-22T10:35:23;99292.34;;;0.45;100.00
48563;BME280;34981;49.104;11.396;2023-11-22T10:37:50;99285.03;;;0.49;100.00
48563;BME280;34981;49.104;11.396;2023-11-22T10:40:19;99267.69;;;0.45;100.00
48563;BME280;34981;49.104;11.396;2023-11-22T10:42:47;99251.56;;;0.48;100.00
48563;BME280;34981;49.104;11.396;2023-11-22T10:45:16;99245.44;;;0.47;100.00
48563;BME280;34981;49.104;11.396;2023-11-22T10:47:44;99233.16;;;0.46;100.00
48563;BME280;34981;49.104;11.396;2023-11-22T10:50:12;99232.00;;;0.39;100.00
48563;BME280;34981;49.104;11.396;2023-11-22T10:52:40;99222.38;;;0.38;100.00
48563;BME280;34981;49.104;11.396;2023-11-22T10:55:08;99216.09;;;0.39;100.00
48563;BME280;34981;49.104;11.396;2023-11-22T10:57:44;99214.75;;;0.45;100.00
48563;BME280;34981;49.104;11.396;2023-11-22T11:00:15;99203.94;;;0.48;100.00
48563;BME280;34981;49.104;11.396;2023-11-22T11:02:46;99210.00;;;0.59;100.00
48563;BME280;34981;49.104;11.396;2023-11-22T11:05:17;99216.22;;;0.69;100.00
48563;BME280;34981;49.104;11.396;2023-11-22T11:07:48;99208.28;;;0.69;100.00
48563;BME280;34981;49.104;11.396;2023-11-22T11:10:21;99193.63;;;0.65;100.00
48563;BME280;34981;49.104;11.396;2023-11-22T11:12:52;99174.84;;;0.68;100.00
48563;BME280;34981;49.104;11.396;2023-11-22T11:15:21;99157.25;;;0.67;100.00
48563;BME280;34981;49.104;11.396;2023-11-22T11:17:48;99130.78;;;0.67;100.00
48563;BME280;34981;49.104;11.396;2023-11-22T11:20:17;99116.28;;;0.62;100.00
48563;BME280;34981;49.104;11.396;2023-11-22T11:22:46;99106.75;;;0.59;100.00
48563;BME280;34981;49.104;11.396;2023-11-22T11:25:17;99114.47;;;0.62;100.00
48563;BME280;34981;49.104;11.396;2023-11-22T11:27:55;99092.84;;;0.57;100.00
48563;BME280;34981;49.104;11.396;2023-11-22T11:30:42;99078.91;;;0.55;100.00
48563;BME280;34981;49.104;11.396;2023-11-22T11:33:13;99074.56;;;0.54;100.00
48563;BME280;34981;49.104;11.396;2023-11-22T11:35:43;99077.94;;;0.56;100.00
48563;BME280;34981;49.104;11.396;2023-11-22T11:38:14;99075.28;;;0.56;100.00
48563;BME280;34981;49.104;11.396;2023-11-22T11:40:41;99070.72;;;0.58;100.00
48563;BME280;34981;49.104;11.396;2023-11-22T11:43:09;99061.31;;;0.54;100.00
48563;BME280;34981;49.104;11.396;2023-11-22T11:45:37;99057.53;;;0.47;100.00
48563;BME280;34981;49.104;11.396;2023-11-22T11:48:06;99052.34;;;0.46;100.00
48563;BME280;34981;49.104;11.396;2023-11-22T11:50:34;99057.66;;;0.46;100.00
48563;BME280;34981;49.104;11.396;2023-11-22T11:53:01;99058.94;;;0.51;100.00
48563;BME280;34981;49.104;11.396;2023-11-22T11:55:28;99068.84;;;0.49;100.00
48563;BME280;34981;49.104;11.396;2023-11-22T11:57:55;99052.22;;;0.47;100.00
48563;BME280;34981;49.104;11.396;2023-11-22T12:00:23;99034.44;;;0.49;100.00
48563;BME280;34981;49.104;11.396;2023-11-22T12:02:55;99040.03;;;0.56;100.00
48563;BME280;34981;49.104;11.396;2023-11-22T12:05:22;99031.00;;;0.58;100.00
48563;BME280;34981;49.104;11.396;2023-11-22T12:07:50;99018.19;;;0.63;100.00
48563;BME280;34981;49.104;11.396;2023-11-22T12:10:17;99015.25;;;0.66;100.00
48563;BME280;34981;49.104;11.396;2023-11-22T12:12:44;99008.69;;;0.61;100.00
48563;BME280;34981;49.104;11.396;2023-11-22T12:15:13;99006.19;;;0.59;100.00
48563;BME280;34981;49.104;11.396;2023-11-22T12:17:41;98999.34;;;0.57;100.00
48563;BME280;34981;49.104;11.396;2023-11-22T12:20:10;98997.56;;;0.57;100.00
48563;BME280;34981;49.104;11.396;2023-11-22T12:22:38;98988.13;;;0.64;100.00
48563;BME280;34981;49.104;11.396;2023-11-22T12:25:05;98988.59;;;0.79;100.00
48563;BME280;34981;49.104;11.396;2023-11-22T12:27:33;98988.28;;;0.72;100.00
48563;BME280;34981;49.104;11.396;2023-11-22T12:30:00;98975.06;;;0.72;100.00
48563;BME280;34981;49.104;11.396;2023-11-22T12:32:27;98969.28;;;0.67;100.00
48563;BME280;34981;49.104;11.396;2023-11-22T12:34:55;98952.28;;;0.60;100.00
48563;BME280;34981;49.104;11.396;2023-11-22T12:37:23;98944.88;;;0.54;100.00
48563;BME280;34981;49.104;11.396;2023-11-22T12:39:51;98932.47;;;0.55;100.00
48563;BME280;34981;49.104;11.396;2023-11-22T12:42:19;98923.69;;;0.54;100.00
48563;BME280;34981;49.104;11.396;2023-11-22T12:44:50;98921.03;;;0.54;100.00
48563;BME280;34981;49.104;11.396;2023-11-22T12:47:35;98911.56;;;0.52;100.00
48563;BME280;34981;49.104;11.396;2023-11-22T12:50:03;98905.59;;;0.59;100.00
48563;BME280;34981;49.104;11.396;2023-11-22T12:52:34;98898.34;;;0.61;100.00